📊 John's Weather Station

Last reading: 2021-10-21 18:02:28

TEMPERATURE

--

Temperature 20 readings
Min Max Average
15.43 °C 17.20 °C 16.62 °C

HUMIDITY

--

Humidity 20 readings
Min Max Average
71.55 % 73.11 % 72.15 %

View Latest 20 Readings

ID Sensor Location Temp Humid Bar Timestamp
88175 BME280 Lounge 15.43 73.11 1027.88 2021-10-21 18:02:28
88174 BME280 Lounge 15.64 72.89 1027.81 2021-10-21 17:52:51
88173 BME280 Lounge 15.84 72.59 1027.44 2021-10-21 17:43:13
88172 BME280 Lounge 16.05 72.23 1027.44 2021-10-21 17:33:36
88171 BME280 Lounge 16.22 72.14 1027.38 2021-10-21 17:23:59
88170 BME280 Lounge 16.37 72.20 1027.46 2021-10-21 17:14:21
88169 BME280 Lounge 16.62 71.97 1027.44 2021-10-21 17:04:46
88168 BME280 Lounge 16.48 72.07 1027.33 2021-10-21 16:55:05
88167 BME280 Lounge 16.69 72.14 1027.50 2021-10-21 16:45:28
88166 BME280 Lounge 16.66 71.97 1027.46 2021-10-21 16:35:51
88165 BME280 Lounge 16.80 71.69 1027.42 2021-10-21 16:26:13
88164 BME280 Lounge 17.05 71.61 1027.34 2021-10-21 16:16:36
88163 BME280 Lounge 17.20 71.55 1027.26 2021-10-21 16:06:58
88162 BME280 Lounge 17.16 71.75 1027.37 2021-10-21 15:57:21
88161 BME280 Lounge 17.08 71.80 1027.53 2021-10-21 15:47:43
88160 BME280 Lounge 17.09 71.95 1027.64 2021-10-21 15:38:06
88159 BME280 Lounge 17.01 72.17 1027.59 2021-10-21 15:28:28
88158 BME280 Lounge 16.93 72.28 1027.60 2021-10-21 15:18:50
88157 BME280 Lounge 17.07 72.24 1027.62 2021-10-21 15:09:13
88156 BME280 Lounge 16.91 72.60 1027.50 2021-10-21 14:59:35